sensor_id;sensor_type;location;lat;lon;timestamp;temperature;humidity
71672;DHT22;67659;45.554;11.812;2023-08-31T00:00:12;21.30;99.90
71672;DHT22;67659;45.554;11.812;2023-08-31T00:02:39;21.30;99.90
71672;DHT22;67659;45.554;11.812;2023-08-31T00:05:06;21.20;99.90
71672;DHT22;67659;45.554;11.812;2023-08-31T00:07:32;21.20;99.90
71672;DHT22;67659;45.554;11.812;2023-08-31T00:09:58;21.20;99.90
71672;DHT22;67659;45.554;11.812;2023-08-31T00:12:24;21.10;99.90
71672;DHT22;67659;45.554;11.812;2023-08-31T00:14:50;21.10;99.90
71672;DHT22;67659;45.554;11.812;2023-08-31T00:17:16;21.00;99.90
71672;DHT22;67659;45.554;11.812;2023-08-31T00:19:43;20.90;99.90
71672;DHT22;67659;45.554;11.812;2023-08-31T00:22:09;21.00;99.90
71672;DHT22;67659;45.554;11.812;2023-08-31T00:24:35;21.00;99.90
71672;DHT22;67659;45.554;11.812;2023-08-31T00:27:03;20.90;99.90
71672;DHT22;67659;45.554;11.812;2023-08-31T00:29:32;21.00;99.90
71672;DHT22;67659;45.554;11.812;2023-08-31T00:31:58;20.90;99.90
71672;DHT22;67659;45.554;11.812;2023-08-31T00:34:24;20.80;99.90
71672;DHT22;67659;45.554;11.812;2023-08-31T00:36:50;20.90;99.90
71672;DHT22;67659;45.554;11.812;2023-08-31T00:39:16;20.90;99.90
71672;DHT22;67659;45.554;11.812;2023-08-31T00:41:46;20.80;99.90
71672;DHT22;67659;45.554;11.812;2023-08-31T00:44:12;20.90;99.90
71672;DHT22;67659;45.554;11.812;2023-08-31T00:46:40;20.80;99.90
71672;DHT22;67659;45.554;11.812;2023-08-31T00:49:07;20.80;99.90
71672;DHT22;67659;45.554;11.812;2023-08-31T00:51:34;20.90;99.90
71672;DHT22;67659;45.554;11.812;2023-08-31T00:54:00;20.90;99.90
71672;DHT22;67659;45.554;11.812;2023-08-31T00:56:26;20.90;99.90
71672;DHT22;67659;45.554;11.812;2023-08-31T00:58:52;20.80;99.90
71672;DHT22;67659;45.554;11.812;2023-08-31T01:01:43;20.80;99.90
71672;DHT22;67659;45.554;11.812;2023-08-31T01:04:31;20.80;99.90
71672;DHT22;67659;45.554;11.812;2023-08-31T01:12:54;20.50;99.90
71672;DHT22;67659;45.554;11.812;2023-08-31T01:15:21;20.70;99.90
71672;DHT22;67659;45.554;11.812;2023-08-31T01:17:52;20.80;99.90
71672;DHT22;67659;45.554;11.812;2023-08-31T01:20:31;20.70;99.90
71672;DHT22;67659;45.554;11.812;2023-08-31T01:23:08;20.80;99.90
71672;DHT22;67659;45.554;11.812;2023-08-31T01:25:36;20.90;99.90
71672;DHT22;67659;45.554;11.812;2023-08-31T01:28:02;20.70;99.90
71672;DHT22;67659;45.554;11.812;2023-08-31T01:30:32;20.70;99.90
71672;DHT22;67659;45.554;11.812;2023-08-31T01:32:58;20.70;99.90
71672;DHT22;67659;45.554;11.812;2023-08-31T01:35:26;20.60;99.90
71672;DHT22;67659;45.554;11.812;2023-08-31T01:38:01;20.60;99.90
71672;DHT22;67659;45.554;11.812;2023-08-31T01:43:18;20.60;99.90
71672;DHT22;67659;45.554;11.812;2023-08-31T01:45:46;20.50;99.90
71672;DHT22;67659;45.554;11.812;2023-08-31T01:48:14;20.30;99.90
71672;DHT22;67659;45.554;11.812;2023-08-31T01:50:40;20.30;99.90
71672;DHT22;67659;45.554;11.812;2023-08-31T01:53:06;20.30;99.90
71672;DHT22;67659;45.554;11.812;2023-08-31T01:55:32;20.10;99.90
71672;DHT22;67659;45.554;11.812;2023-08-31T01:57:58;20.00;99.90
71672;DHT22;67659;45.554;11.812;2023-08-31T02:00:26;20.00;99.90
71672;DHT22;67659;45.554;11.812;2023-08-31T02:02:52;20.10;99.90
71672;DHT22;67659;45.554;11.812;2023-08-31T02:05:17;20.10;99.90
71672;DHT22;67659;45.554;11.812;2023-08-31T02:07:43;20.20;99.90
71672;DHT22;67659;45.554;11.812;2023-08-31T02:10:09;20.10;99.90
71672;DHT22;67659;45.554;11.812;2023-08-31T02:12:35;20.10;99.90
71672;DHT22;67659;45.554;11.812;2023-08-31T02:15:04;20.10;99.90
71672;DHT22;67659;45.554;11.812;2023-08-31T02:17:30;20.10;99.90
71672;DHT22;67659;45.554;11.812;2023-08-31T02:19:56;20.00;99.90
71672;DHT22;67659;45.554;11.812;2023-08-31T02:22:23;20.00;99.90
71672;DHT22;67659;45.554;11.812;2023-08-31T02:24:49;19.90;99.90
71672;DHT22;67659;45.554;11.812;2023-08-31T02:27:15;19.90;99.90
71672;DHT22;67659;45.554;11.812;2023-08-31T02:29:40;19.80;99.90
71672;DHT22;67659;45.554;11.812;2023-08-31T02:32:07;19.70;99.90
71672;DHT22;67659;45.554;11.812;2023-08-31T02:34:33;19.80;99.90
71672;DHT22;67659;45.554;11.812;2023-08-31T02:36:59;19.90;99.90
71672;DHT22;67659;45.554;11.812;2023-08-31T02:39:24;19.90;99.90
71672;DHT22;67659;45.554;11.812;2023-08-31T02:41:50;19.80;99.90
71672;DHT22;67659;45.554;11.812;2023-08-31T02:44:16;19.90;99.90
71672;DHT22;67659;45.554;11.812;2023-08-31T02:46:42;19.80;99.90
71672;DHT22;67659;45.554;11.812;2023-08-31T02:49:08;19.80;99.90
71672;DHT22;67659;45.554;11.812;2023-08-31T02:51:34;19.60;99.90
71672;DHT22;67659;45.554;11.812;2023-08-31T02:53:59;19.50;99.90
71672;DHT22;67659;45.554;11.812;2023-08-31T02:56:25;19.50;99.90
71672;DHT22;67659;45.554;11.812;2023-08-31T02:58:51;19.50;99.90
71672;DHT22;67659;45.554;11.812;2023-08-31T03:01:17;19.60;99.90
71672;DHT22;67659;45.554;11.812;2023-08-31T03:03:43;19.50;99.90
71672;DHT22;67659;45.554;11.812;2023-08-31T03:06:11;19.60;99.90
71672;DHT22;67659;45.554;11.812;2023-08-31T03:08:37;19.70;99.90
71672;DHT22;67659;45.554;11.812;2023-08-31T03:11:04;19.70;99.90
71672;DHT22;67659;45.554;11.812;2023-08-31T03:13:32;19.80;99.90
71672;DHT22;67659;45.554;11.812;2023-08-31T03:15:59;19.80;99.90
71672;DHT22;67659;45.554;11.812;2023-08-31T03:18:25;19.70;99.90
71672;DHT22;67659;45.554;11.812;2023-08-31T03:20:51;19.70;99.90
71672;DHT22;67659;45.554;11.812;2023-08-31T03:23:16;19.70;99.90
71672;DHT22;67659;45.554;11.812;2023-08-31T03:25:42;19.60;99.90
71672;DHT22;67659;45.554;11.812;2023-08-31T03:28:08;19.70;99.90
71672;DHT22;67659;45.554;11.812;2023-08-31T03:30:35;19.80;99.90
71672;DHT22;67659;45.554;11.812;2023-08-31T03:33:01;19.80;99.90
71672;DHT22;67659;45.554;11.812;2023-08-31T03:35:28;19.60;99.90
71672;DHT22;67659;45.554;11.812;2023-08-31T03:37:55;19.70;99.90
71672;DHT22;67659;45.554;11.812;2023-08-31T03:40:20;19.60;99.90
71672;DHT22;67659;45.554;11.812;2023-08-31T03:42:49;19.70;99.90
71672;DHT22;67659;45.554;11.812;2023-08-31T03:45:15;19.80;99.90
71672;DHT22;67659;45.554;11.812;2023-08-31T03:47:40;19.80;99.90
71672;DHT22;67659;45.554;11.812;2023-08-31T03:50:07;19.90;99.90
71672;DHT22;67659;45.554;11.812;2023-08-31T03:52:34;19.80;99.90
71672;DHT22;67659;45.554;11.812;2023-08-31T03:54:59;19.90;99.90
71672;DHT22;67659;45.554;11.812;2023-08-31T03:57:25;19.90;99.90
71672;DHT22;67659;45.554;11.812;2023-08-31T03:59:52;19.80;99.90
71672;DHT22;67659;45.554;11.812;2023-08-31T04:02:18;19.70;99.90
71672;DHT22;67659;45.554;11.812;2023-08-31T04:04:43;19.40;99.90
71672;DHT22;67659;45.554;11.812;2023-08-31T04:07:09;19.50;99.90
71672;DHT22;67659;45.554;11.812;2023-08-31T04:09:35;19.50;99.90
71672;DHT22;67659;45.554;11.812;2023-08-31T04:12:01;19.60;99.90
71672;DHT22;67659;45.554;11.812;2023-08-31T04:14:27;19.60;99.90
71672;DHT22;67659;45.554;11.812;2023-08-31T04:16:54;19.60;99.90
71672;DHT22;67659;45.554;11.812;2023-08-31T04:19:20;19.60;99.90
71672;DHT22;67659;45.554;11.812;2023-08-31T04:21:46;19.60;99.90
71672;DHT22;67659;45.554;11.812;2023-08-31T04:24:12;19.60;99.90
71672;DHT22;67659;45.554;11.812;2023-08-31T04:26:38;19.70;99.90
71672;DHT22;67659;45.554;11.812;2023-08-31T04:29:04;19.60;99.90
71672;DHT22;67659;45.554;11.812;2023-08-31T04:31:32;19.60;99.90
71672;DHT22;67659;45.554;11.812;2023-08-31T04:33:58;19.70;99.90
71672;DHT22;67659;45.554;11.812;2023-08-31T04:36:24;19.70;99.90
71672;DHT22;67659;45.554;11.812;2023-08-31T04:38:52;19.70;99.90
71672;DHT22;67659;45.554;11.812;2023-08-31T04:41:18;19.70;99.90
71672;DHT22;67659;45.554;11.812;2023-08-31T04:43:45;19.70;99.90
71672;DHT22;67659;45.554;11.812;2023-08-31T04:46:13;19.70;99.90
71672;DHT22;67659;45.554;11.812;2023-08-31T04:48:39;19.80;99.90
71672;DHT22;67659;45.554;11.812;2023-08-31T04:51:05;19.80;99.90
71672;DHT22;67659;45.554;11.812;2023-08-31T04:53:31;19.80;99.90
71672;DHT22;67659;45.554;11.812;2023-08-31T04:55:57;19.90;99.90
71672;DHT22;67659;45.554;11.812;2023-08-31T04:58:23;19.90;99.90
71672;DHT22;67659;45.554;11.812;2023-08-31T05:00:51;20.00;99.90
71672;DHT22;67659;45.554;11.812;2023-08-31T05:03:16;19.90;99.90
71672;DHT22;67659;45.554;11.812;2023-08-31T05:05:42;19.90;99.90
71672;DHT22;67659;45.554;11.812;2023-08-31T05:08:09;19.90;99.90
71672;DHT22;67659;45.554;11.812;2023-08-31T05:10:35;20.00;99.90
71672;DHT22;67659;45.554;11.812;2023-08-31T05:13:01;20.00;99.90
71672;DHT22;67659;45.554;11.812;2023-08-31T05:15:27;19.70;99.90
71672;DHT22;67659;45.554;11.812;2023-08-31T05:17:54;19.70;99.90
71672;DHT22;67659;45.554;11.812;2023-08-31T05:20:20;19.80;99.90
71672;DHT22;67659;45.554;11.812;2023-08-31T05:22:48;19.80;99.90
71672;DHT22;67659;45.554;11.812;2023-08-31T05:25:14;19.90;99.90
71672;DHT22;67659;45.554;11.812;2023-08-31T05:27:39;20.00;99.90
71672;DHT22;67659;45.554;11.812;2023-08-31T05:30:06;20.10;99.90
71672;DHT22;67659;45.554;11.812;2023-08-31T05:32:32;20.20;99.90
71672;DHT22;67659;45.554;11.812;2023-08-31T05:34:58;20.40;99.90
71672;DHT22;67659;45.554;11.812;2023-08-31T05:37:25;20.50;99.90
71672;DHT22;67659;45.554;11.812;2023-08-31T05:39:51;20.70;99.90
71672;DHT22;67659;45.554;11.812;2023-08-31T05:42:17;20.90;99.90
71672;DHT22;67659;45.554;11.812;2023-08-31T05:44:44;21.00;99.90
71672;DHT22;67659;45.554;11.812;2023-08-31T05:47:10;21.10;99.90
71672;DHT22;67659;45.554;11.812;2023-08-31T05:49:35;21.10;99.90
71672;DHT22;67659;45.554;11.812;2023-08-31T05:52:01;21.20;99.90
71672;DHT22;67659;45.554;11.812;2023-08-31T05:54:27;21.30;99.90
71672;DHT22;67659;45.554;11.812;2023-08-31T05:56:53;21.30;99.90
71672;DHT22;67659;45.554;11.812;2023-08-31T05:59:19;21.40;99.90
71672;DHT22;67659;45.554;11.812;2023-08-31T06:01:45;21.40;99.90
71672;DHT22;67659;45.554;11.812;2023-08-31T06:04:11;21.60;99.90
71672;DHT22;67659;45.554;11.812;2023-08-31T06:06:37;21.70;99.90
71672;DHT22;67659;45.554;11.812;2023-08-31T06:09:03;21.70;99.90
71672;DHT22;67659;45.554;11.812;2023-08-31T06:11:30;21.80;99.90
71672;DHT22;67659;45.554;11.812;2023-08-31T06:13:56;21.80;99.90
71672;DHT22;67659;45.554;11.812;2023-08-31T06:16:21;21.90;99.90
71672;DHT22;67659;45.554;11.812;2023-08-31T06:18:49;22.10;99.90
71672;DHT22;67659;45.554;11.812;2023-08-31T06:21:15;22.30;99.90
71672;DHT22;67659;45.554;11.812;2023-08-31T06:23:41;22.50;99.90
71672;DHT22;67659;45.554;11.812;2023-08-31T06:26:07;22.20;99.90
71672;DHT22;67659;45.554;11.812;2023-08-31T06:28:37;22.20;99.90
71672;DHT22;67659;45.554;11.812;2023-08-31T06:31:03;22.40;99.90
71672;DHT22;67659;45.554;11.812;2023-08-31T06:33:29;22.50;99.90
71672;DHT22;67659;45.554;11.812;2023-08-31T06:35:55;22.60;99.90
71672;DHT22;67659;45.554;11.812;2023-08-31T06:38:21;22.70;99.90
71672;DHT22;67659;45.554;11.812;2023-08-31T06:40:47;22.90;99.90
71672;DHT22;67659;45.554;11.812;2023-08-31T06:43:13;22.90;99.90
71672;DHT22;67659;45.554;11.812;2023-08-31T06:45:39;22.80;99.90
71672;DHT22;67659;45.554;11.812;2023-08-31T06:48:06;22.90;99.90
71672;DHT22;67659;45.554;11.812;2023-08-31T06:50:33;23.20;99.90
71672;DHT22;67659;45.554;11.812;2023-08-31T06:53:01;23.40;99.90
71672;DHT22;67659;45.554;11.812;2023-08-31T06:55:26;23.60;99.90
71672;DHT22;67659;45.554;11.812;2023-08-31T06:57:52;23.60;97.90
71672;DHT22;67659;45.554;11.812;2023-08-31T07:00:19;23.50;99.90
71672;DHT22;67659;45.554;11.812;2023-08-31T07:02:45;23.50;99.90
71672;DHT22;67659;45.554;11.812;2023-08-31T07:05:11;23.60;99.30
71672;DHT22;67659;45.554;11.812;2023-08-31T07:07:37;23.50;99.90
71672;DHT22;67659;45.554;11.812;2023-08-31T07:10:03;23.60;97.30
71672;DHT22;67659;45.554;11.812;2023-08-31T07:12:31;23.70;99.30
71672;DHT22;67659;45.554;11.812;2023-08-31T07:14:57;23.90;99.90
71672;DHT22;67659;45.554;11.812;2023-08-31T07:17:23;24.20;99.90
71672;DHT22;67659;45.554;11.812;2023-08-31T07:19:49;24.40;97.30
71672;DHT22;67659;45.554;11.812;2023-08-31T07:22:15;24.50;93.90
71672;DHT22;67659;45.554;11.812;2023-08-31T07:24:41;24.40;95.20
71672;DHT22;67659;45.554;11.812;2023-08-31T07:27:06;24.20;95.20
71672;DHT22;67659;45.554;11.812;2023-08-31T07:29:32;24.30;94.60
71672;DHT22;67659;45.554;11.812;2023-08-31T07:31:58;24.30;95.60
71672;DHT22;67659;45.554;11.812;2023-08-31T07:34:24;24.30;94.70
71672;DHT22;67659;45.554;11.812;2023-08-31T07:36:50;24.40;94.30
71672;DHT22;67659;45.554;11.812;2023-08-31T07:39:16;24.40;94.00
71672;DHT22;67659;45.554;11.812;2023-08-31T07:41:44;24.30;93.40
71672;DHT22;67659;45.554;11.812;2023-08-31T07:44:10;24.40;93.80
71672;DHT22;67659;45.554;11.812;2023-08-31T07:46:36;24.30;94.20
71672;DHT22;67659;45.554;11.812;2023-08-31T07:49:02;24.40;95.10
71672;DHT22;67659;45.554;11.812;2023-08-31T07:51:29;24.30;94.60
71672;DHT22;67659;45.554;11.812;2023-08-31T07:53:55;24.50;95.20
71672;DHT22;67659;45.554;11.812;2023-08-31T07:56:22;24.80;94.50
71672;DHT22;67659;45.554;11.812;2023-08-31T07:58:49;24.90;93.00
71672;DHT22;67659;45.554;11.812;2023-08-31T08:01:15;25.30;91.60
71672;DHT22;67659;45.554;11.812;2023-08-31T08:03:41;25.30;91.60
71672;DHT22;67659;45.554;11.812;2023-08-31T08:06:07;25.30;90.40
71672;DHT22;67659;45.554;11.812;2023-08-31T08:08:33;25.10;90.40
71672;DHT22;67659;45.554;11.812;2023-08-31T08:10:58;25.00;93.50
71672;DHT22;67659;45.554;11.812;2023-08-31T08:13:25;25.20;92.50
71672;DHT22;67659;45.554;11.812;2023-08-31T08:15:53;25.40;92.10
71672;DHT22;67659;45.554;11.812;2023-08-31T08:18:19;25.80;91.70
71672;DHT22;67659;45.554;11.812;2023-08-31T08:20:48;25.90;88.60
71672;DHT22;67659;45.554;11.812;2023-08-31T08:23:15;25.90;90.00
71672;DHT22;67659;45.554;11.812;2023-08-31T08:25:40;26.10;90.70
71672;DHT22;67659;45.554;11.812;2023-08-31T08:28:06;26.30;91.40
71672;DHT22;67659;45.554;11.812;2023-08-31T08:30:32;26.20;87.10
71672;DHT22;67659;45.554;11.812;2023-08-31T08:32:58;26.10;88.40
71672;DHT22;67659;45.554;11.812;2023-08-31T08:35:24;26.40;87.90
71672;DHT22;67659;45.554;11.812;2023-08-31T08:37:51;26.70;89.10
71672;DHT22;67659;45.554;11.812;2023-08-31T08:40:17;26.80;87.40
71672;DHT22;67659;45.554;11.812;2023-08-31T08:42:43;26.80;84.60
71672;DHT22;67659;45.554;11.812;2023-08-31T08:45:15;26.60;86.60
71672;DHT22;67659;45.554;11.812;2023-08-31T08:47:44;26.60;86.10
71672;DHT22;67659;45.554;11.812;2023-08-31T08:50:11;26.80;86.90
71672;DHT22;67659;45.554;11.812;2023-08-31T08:52:41;26.90;85.10
71672;DHT22;67659;45.554;11.812;2023-08-31T08:55:08;27.10;87.40
71672;DHT22;67659;45.554;11.812;2023-08-31T08:57:34;27.50;85.50
71672;DHT22;67659;45.554;11.812;2023-08-31T09:00:00;27.80;82.70
71672;DHT22;67659;45.554;11.812;2023-08-31T09:02:26;27.50;83.70
71672;DHT22;67659;45.554;11.812;2023-08-31T09:04:52;27.60;84.20
71672;DHT22;67659;45.554;11.812;2023-08-31T09:07:21;27.80;83.40
71672;DHT22;67659;45.554;11.812;2023-08-31T09:09:52;28.00;81.70
71672;DHT22;67659;45.554;11.812;2023-08-31T09:12:18;27.90;81.60
71672;DHT22;67659;45.554;11.812;2023-08-31T09:15:03;28.00;82.20
71672;DHT22;67659;45.554;11.812;2023-08-31T09:17:40;28.40;83.00
71672;DHT22;67659;45.554;11.812;2023-08-31T09:20:07;28.80;82.00
71672;DHT22;67659;45.554;11.812;2023-08-31T09:22:34;28.80;82.50
71672;DHT22;67659;45.554;11.812;2023-08-31T09:25:00;29.00;82.80
71672;DHT22;67659;45.554;11.812;2023-08-31T09:27:26;28.90;82.70
71672;DHT22;67659;45.554;11.812;2023-08-31T09:29:55;29.10;80.40
71672;DHT22;67659;45.554;11.812;2023-08-31T09:32:21;29.30;81.30
71672;DHT22;67659;45.554;11.812;2023-08-31T09:34:47;29.50;79.70
71672;DHT22;67659;45.554;11.812;2023-08-31T09:37:16;29.70;79.80
71672;DHT22;67659;45.554;11.812;2023-08-31T09:39:42;29.80;78.00
71672;DHT22;67659;45.554;11.812;2023-08-31T09:42:08;29.60;79.80
71672;DHT22;67659;45.554;11.812;2023-08-31T09:44:40;29.50;81.00
71672;DHT22;67659;45.554;11.812;2023-08-31T09:47:08;29.40;80.60
71672;DHT22;67659;45.554;11.812;2023-08-31T09:49:35;29.30;80.60
71672;DHT22;67659;45.554;11.812;2023-08-31T09:52:04;29.30;78.90
71672;DHT22;67659;45.554;11.812;2023-08-31T09:54:35;29.70;79.20
71672;DHT22;67659;45.554;11.812;2023-08-31T09:57:02;29.70;80.70
71672;DHT22;67659;45.554;11.812;2023-08-31T09:59:28;29.80;79.40
71672;DHT22;67659;45.554;11.812;2023-08-31T10:01:54;29.80;79.00
71672;DHT22;67659;45.554;11.812;2023-08-31T10:04:23;29.60;79.60
71672;DHT22;67659;45.554;11.812;2023-08-31T10:06:49;29.00;81.20
71672;DHT22;67659;45.554;11.812;2023-08-31T10:09:16;28.50;80.80
71672;DHT22;67659;45.554;11.812;2023-08-31T10:11:42;28.00;82.30
71672;DHT22;67659;45.554;11.812;2023-08-31T10:14:12;27.90;82.40
71672;DHT22;67659;45.554;11.812;2023-08-31T10:16:44;27.70;82.70
71672;DHT22;67659;45.554;11.812;2023-08-31T10:19:10;27.70;82.60
71672;DHT22;67659;45.554;11.812;2023-08-31T10:21:36;27.80;83.40
71672;DHT22;67659;45.554;11.812;2023-08-31T10:24:03;27.30;83.10
71672;DHT22;67659;45.554;11.812;2023-08-31T10:26:31;27.50;82.50
71672;DHT22;67659;45.554;11.812;2023-08-31T10:28:58;27.90;82.60
71672;DHT22;67659;45.554;11.812;2023-08-31T10:31:28;28.10;82.20
71672;DHT22;67659;45.554;11.812;2023-08-31T10:34:01;28.40;81.20
71672;DHT22;67659;45.554;11.812;2023-08-31T10:36:41;28.70;81.80
71672;DHT22;67659;45.554;11.812;2023-08-31T10:39:17;28.80;81.90
71672;DHT22;67659;45.554;11.812;2023-08-31T10:41:53;29.30;80.70
71672;DHT22;67659;45.554;11.812;2023-08-31T10:46:46;29.60;80.30
71672;DHT22;67659;45.554;11.812;2023-08-31T10:49:13;29.50;78.80
71672;DHT22;67659;45.554;11.812;2023-08-31T10:51:41;29.60;78.60
71672;DHT22;67659;45.554;11.812;2023-08-31T10:54:08;29.30;80.70
71672;DHT22;67659;45.554;11.812;2023-08-31T10:59:20;29.40;78.80
71672;DHT22;67659;45.554;11.812;2023-08-31T11:04:27;29.80;78.50
71672;DHT22;67659;45.554;11.812;2023-08-31T11:07:14;29.20;79.30
71672;DHT22;67659;45.554;11.812;2023-08-31T11:09:41;29.20;78.10
71672;DHT22;67659;45.554;11.812;2023-08-31T11:12:07;29.50;77.70
71672;DHT22;67659;45.554;11.812;2023-08-31T11:14:33;29.50;77.80
71672;DHT22;67659;45.554;11.812;2023-08-31T11:17:00;29.70;78.30
71672;DHT22;67659;45.554;11.812;2023-08-31T11:19:27;30.00;78.30
71672;DHT22;67659;45.554;11.812;2023-08-31T11:21:54;30.30;77.30
71672;DHT22;67659;45.554;11.812;2023-08-31T11:24:20;30.10;76.40
71672;DHT22;67659;45.554;11.812;2023-08-31T11:26:53;29.90;75.80
71672;DHT22;67659;45.554;11.812;2023-08-31T11:29:20;30.00;75.80
71672;DHT22;67659;45.554;11.812;2023-08-31T11:31:45;30.30;76.60
71672;DHT22;67659;45.554;11.812;2023-08-31T11:34:16;30.60;75.50
71672;DHT22;67659;45.554;11.812;2023-08-31T11:36:44;30.50;75.50
71672;DHT22;67659;45.554;11.812;2023-08-31T11:39:10;30.40;76.30
71672;DHT22;67659;45.554;11.812;2023-08-31T11:41:36;30.20;77.40
71672;DHT22;67659;45.554;11.812;2023-08-31T11:44:12;30.40;76.80
71672;DHT22;67659;45.554;11.812;2023-08-31T11:46:39;30.40;76.60
71672;DHT22;67659;45.554;11.812;2023-08-31T11:49:07;30.10;77.00
71672;DHT22;67659;45.554;11.812;2023-08-31T11:51:34;30.40;77.10
71672;DHT22;67659;45.554;11.812;2023-08-31T11:54:04;30.60;76.50
71672;DHT22;67659;45.554;11.812;2023-08-31T11:56:46;30.70;77.20
71672;DHT22;67659;45.554;11.812;2023-08-31T11:59:18;30.00;77.50
71672;DHT22;67659;45.554;11.812;2023-08-31T12:01:47;30.00;76.80
71672;DHT22;67659;45.554;11.812;2023-08-31T12:04:19;30.30;77.00
71672;DHT22;67659;45.554;11.812;2023-08-31T12:06:50;30.30;77.00
71672;DHT22;67659;45.554;11.812;2023-08-31T12:09:16;30.30;76.30
71672;DHT22;67659;45.554;11.812;2023-08-31T12:11:42;30.20;76.20
71672;DHT22;67659;45.554;11.812;2023-08-31T12:14:21;30.10;75.70
71672;DHT22;67659;45.554;11.812;2023-08-31T12:16:48;30.20;77.20
71672;DHT22;67659;45.554;11.812;2023-08-31T12:19:15;30.50;78.00
71672;DHT22;67659;45.554;11.812;2023-08-31T12:21:46;30.50;76.20
71672;DHT22;67659;45.554;11.812;2023-08-31T12:24:12;30.40;76.10
71672;DHT22;67659;45.554;11.812;2023-08-31T12:26:38;30.10;76.10
71672;DHT22;67659;45.554;11.812;2023-08-31T12:29:04;30.10;76.70
71672;DHT22;67659;45.554;11.812;2023-08-31T12:31:31;30.00;76.20
71672;DHT22;67659;45.554;11.812;2023-08-31T12:33:58;30.20;76.60
71672;DHT22;67659;45.554;11.812;2023-08-31T12:36:25;30.30;76.50
71672;DHT22;67659;45.554;11.812;2023-08-31T12:38:51;30.60;75.90
71672;DHT22;67659;45.554;11.812;2023-08-31T12:41:17;30.60;76.40
71672;DHT22;67659;45.554;11.812;2023-08-31T12:43:43;30.70;76.30
71672;DHT22;67659;45.554;11.812;2023-08-31T12:46:09;31.00;76.60
71672;DHT22;67659;45.554;11.812;2023-08-31T12:48:35;30.90;75.70
71672;DHT22;67659;45.554;11.812;2023-08-31T12:51:01;31.00;76.60
71672;DHT22;67659;45.554;11.812;2023-08-31T12:53:27;30.90;76.40
71672;DHT22;67659;45.554;11.812;2023-08-31T12:55:53;30.70;75.40
71672;DHT22;67659;45.554;11.812;2023-08-31T12:58:19;30.30;75.60
71672;DHT22;67659;45.554;11.812;2023-08-31T13:00:47;30.20;75.80
71672;DHT22;67659;45.554;11.812;2023-08-31T13:03:14;30.20;76.50
71672;DHT22;67659;45.554;11.812;2023-08-31T13:05:41;30.00;76.10
71672;DHT22;67659;45.554;11.812;2023-08-31T13:08:07;29.90;78.20
71672;DHT22;67659;45.554;11.812;2023-08-31T13:10:34;29.70;76.70
71672;DHT22;67659;45.554;11.812;2023-08-31T13:13:00;29.20;77.90
71672;DHT22;67659;45.554;11.812;2023-08-31T13:15:26;29.00;77.70
71672;DHT22;67659;45.554;11.812;2023-08-31T13:17:52;28.80;78.30
71672;DHT22;67659;45.554;11.812;2023-08-31T13:20:18;28.60;79.20
71672;DHT22;67659;45.554;11.812;2023-08-31T13:22:44;28.40;80.50
71672;DHT22;67659;45.554;11.812;2023-08-31T13:25:10;28.20;79.80
71672;DHT22;67659;45.554;11.812;2023-08-31T13:27:37;28.20;80.30
71672;DHT22;67659;45.554;11.812;2023-08-31T13:30:04;28.30;79.60
71672;DHT22;67659;45.554;11.812;2023-08-31T13:32:32;28.40;79.90
71672;DHT22;67659;45.554;11.812;2023-08-31T13:34:58;28.40;79.80
71672;DHT22;67659;45.554;11.812;2023-08-31T13:37:24;28.50;79.30
71672;DHT22;67659;45.554;11.812;2023-08-31T13:39:50;28.50;79.70
71672;DHT22;67659;45.554;11.812;2023-08-31T13:42:21;28.50;79.60
71672;DHT22;67659;45.554;11.812;2023-08-31T13:44:46;28.60;79.80
71672;DHT22;67659;45.554;11.812;2023-08-31T13:47:12;28.50;80.00
71672;DHT22;67659;45.554;11.812;2023-08-31T13:49:38;28.70;80.20
71672;DHT22;67659;45.554;11.812;2023-08-31T13:52:04;28.60;79.70
71672;DHT22;67659;45.554;11.812;2023-08-31T13:54:33;28.60;81.10
71672;DHT22;67659;45.554;11.812;2023-08-31T13:57:01;28.50;80.90
71672;DHT22;67659;45.554;11.812;2023-08-31T13:59:28;28.40;80.60
71672;DHT22;67659;45.554;11.812;2023-08-31T14:01:56;28.60;82.10
71672;DHT22;67659;45.554;11.812;2023-08-31T14:04:22;28.70;81.30
71672;DHT22;67659;45.554;11.812;2023-08-31T14:06:48;28.90;81.20
71672;DHT22;67659;45.554;11.812;2023-08-31T14:09:14;29.00;80.10
71672;DHT22;67659;45.554;11.812;2023-08-31T14:11:40;29.00;78.40
71672;DHT22;67659;45.554;11.812;2023-08-31T14:14:07;28.90;79.10
71672;DHT22;67659;45.554;11.812;2023-08-31T14:16:37;29.00;78.20
71672;DHT22;67659;45.554;11.812;2023-08-31T14:19:04;28.90;78.00
71672;DHT22;67659;45.554;11.812;2023-08-31T14:21:31;28.90;77.20
71672;DHT22;67659;45.554;11.812;2023-08-31T14:23:57;28.90;78.80
71672;DHT22;67659;45.554;11.812;2023-08-31T14:26:24;28.90;78.20
71672;DHT22;67659;45.554;11.812;2023-08-31T14:28:53;28.80;77.80
71672;DHT22;67659;45.554;11.812;2023-08-31T14:31:19;28.70;78.40
71672;DHT22;67659;45.554;11.812;2023-08-31T14:33:45;28.60;79.70
71672;DHT22;67659;45.554;11.812;2023-08-31T14:36:15;28.40;79.50
71672;DHT22;67659;45.554;11.812;2023-08-31T14:38:41;28.50;78.70
71672;DHT22;67659;45.554;11.812;2023-08-31T14:41:06;28.40;79.70
71672;DHT22;67659;45.554;11.812;2023-08-31T14:43:33;28.50;79.00
71672;DHT22;67659;45.554;11.812;2023-08-31T14:45:59;28.30;79.10
71672;DHT22;67659;45.554;11.812;2023-08-31T14:48:28;28.40;79.40
71672;DHT22;67659;45.554;11.812;2023-08-31T14:50:54;28.50;79.40
71672;DHT22;67659;45.554;11.812;2023-08-31T14:53:20;28.40;78.50
71672;DHT22;67659;45.554;11.812;2023-08-31T14:55:49;28.40;79.50
71672;DHT22;67659;45.554;11.812;2023-08-31T14:58:15;28.50;79.40
71672;DHT22;67659;45.554;11.812;2023-08-31T15:00:41;28.50;80.20
71672;DHT22;67659;45.554;11.812;2023-08-31T15:03:07;28.40;79.70
71672;DHT22;67659;45.554;11.812;2023-08-31T15:05:32;28.40;80.10
71672;DHT22;67659;45.554;11.812;2023-08-31T15:08:00;28.40;79.20
71672;DHT22;67659;45.554;11.812;2023-08-31T15:10:27;28.40;79.10
71672;DHT22;67659;45.554;11.812;2023-08-31T15:12:53;28.40;78.80
71672;DHT22;67659;45.554;11.812;2023-08-31T15:15:27;28.50;79.40
71672;DHT22;67659;45.554;11.812;2023-08-31T15:17:53;28.30;79.10
71672;DHT22;67659;45.554;11.812;2023-08-31T15:20:19;28.40;79.70
71672;DHT22;67659;45.554;11.812;2023-08-31T15:22:46;28.40;80.00
71672;DHT22;67659;45.554;11.812;2023-08-31T15:25:12;28.40;80.30
71672;DHT22;67659;45.554;11.812;2023-08-31T15:27:38;28.30;79.70
71672;DHT22;67659;45.554;11.812;2023-08-31T15:30:05;28.40;80.20